Redings Mill, Missouri
Current Conditions -  °F | °C
As of 1:53 PM on Sunday 23 Nov 2014 (Local Time) from KJLN Reporting Station
Scattered Clouds Scattered Clouds  
Wind Chill: 18°   Ceiling: Unl
Heat Index: 18°   Visibility: 10mi
Dew Point: 12°   Wind: 3mph
Humidity: 65%   Direction: 180°S
Pressure: 29.31"   Gusts: NA
Location:  37.1074°N, 94.5218°W
Report Text: KJLN 231953Z 18003KT 10SM FEW027 SCT034 18/12 A2931 RMK AO2 SLP920 T01830117
Loading
Personal Weather Stations






























Interactive Weather Map New forecast layout! Learn more

10-Day Weather Forecast

Advertisements
Track Severe Weather on mobile